Overview Statistics Trail Chart Weather Telemetry Raw packets
 

This is the latest recevied weather packets stored in our database for station/object Dunnningn. If no packets are shown the sender has not sent any weather packets the latest 10 day(s).

<< 13 14 15 16 17 18 19 >>
Time Temp. Humidity Pressure Rain* Wind** Luminosity Snow
1787963531 15° C 82% 1016.6 hPa 0 mm - - -
1787961731 15.56° C 85% 1016.7 hPa 0 mm - - -
1787959940 15.56° C 85% 1016.5 hPa 0 mm - - -
1787958131 15.56° C 84% 1016.5 hPa 0 mm - - -
1787956331 16.11° C 83% 1016.5 hPa 0 mm - - -
1787952731 16.67° C 82% 1016.2 hPa 19.56 mm - - -
1787950930 17.22° C 79% 1015.7 hPa 19.56 mm - - -
1787949131 17.78° C 64% 1015.4 hPa 19.56 mm - - -
1787947331 17.78° C 63% 1015 hPa 19.56 mm - - -
1787945533 18.33° C 62% 1014.7 hPa 19.56 mm - - -
1787943732 18.33° C 61% 1014.7 hPa 19.56 mm - - -
1787941930 19.44° C 58% 1014 hPa 19.56 mm - - -
1787940131 20° C 57% 1013.7 hPa 19.56 mm - - -
1787938334 20.56° C 56% 1013.5 hPa 19.56 mm - - -
1787936532 20.56° C 56% 1013.2 hPa 19.56 mm - - -
1787934731 21.67° C 54% 1012.8 hPa 19.56 mm - - -
1787932931 21.67° C 58% 1012.2 hPa 19.56 mm - - -
1787931130 21.67° C 59% 1012.2 hPa 19.56 mm - - -
1787929330 22.22° C 53% 1012.5 hPa 19.56 mm - - -
1787927530 23.33° C 53% 1012.6 hPa 19.56 mm - - -
1787925730 23.33° C 52% 1012.5 hPa 19.56 mm - - -
1787923930 22.22° C 65% 1012.2 hPa 19.56 mm - - -
1787922130 21.67° C 70% 1012.5 hPa 19.56 mm - - -
1787920330 20.56° C 80% 1012.9 hPa 19.56 mm - - -
1787918530 19.44° C 85% 1012.5 hPa 19.56 mm - - -

* Rain since midnight (hover to see other rain measurements)
** Current wind speed in m/s (hover to see current wind gust speed)